createdAt,value
2023-02-25T00:03:00.651Z,97599.42
2023-02-25T00:13:17.494Z,97580.84
2023-02-25T00:23:22.058Z,97568.47
2023-02-25T00:33:25.666Z,97560.33
2023-02-25T00:43:32.409Z,97552.32
2023-02-25T00:53:39.305Z,97536.23
2023-02-25T01:03:43.159Z,97528.80
2023-02-25T01:13:48.950Z,97517.15
2023-02-25T01:24:00.038Z,97505.00
2023-02-25T01:34:08.694Z,97483.23
2023-02-25T01:44:21.264Z,97475.38
2023-02-25T01:54:27.675Z,97471.89
2023-02-25T02:04:32.203Z,97453.14
2023-02-25T02:14:42.468Z,97443.13
2023-02-25T02:25:00.249Z,97434.80
2023-02-25T02:35:40.677Z,97424.98
2023-02-25T02:46:15.934Z,97417.76
2023-02-25T02:56:23.099Z,97404.60
2023-02-25T03:06:35.471Z,97403.52
2023-02-25T03:16:43.189Z,97390.74
2023-02-25T03:26:46.980Z,97379.71
2023-02-25T03:37:04.269Z,97382.92
2023-02-25T03:47:13.213Z,97379.41
2023-02-25T03:57:20.257Z,97379.26
2023-02-25T04:07:23.930Z,97383.65
2023-02-25T04:17:28.117Z,97383.78
2023-02-25T04:27:32.932Z,97379.11
2023-02-25T04:37:39.257Z,97365.20
2023-02-25T04:47:42.931Z,97355.95
2023-02-25T04:57:48.593Z,97350.56
2023-02-25T05:07:52.228Z,97348.09
2023-02-25T05:17:55.762Z,97340.23
2023-02-25T05:28:00.174Z,97336.88
2023-02-25T05:38:05.872Z,97335.71
2023-02-25T05:48:09.536Z,97338.98
2023-02-25T05:58:13.882Z,97342.21
2023-02-25T06:08:19.837Z,97350.02
2023-02-25T06:18:23.508Z,97357.55
2023-02-25T06:28:27.052Z,97357.48
2023-02-25T06:38:33.004Z,97357.17
2023-02-25T06:48:36.994Z,97350.59
2023-02-25T06:58:41.318Z,97347.39
2023-02-25T07:08:46.854Z,97353.42
2023-02-25T07:18:51.187Z,97358.09
2023-02-25T07:28:57.259Z,97361.29
2023-02-25T07:39:04.413Z,97356.77
2023-02-25T07:49:11.297Z,97355.77
2023-02-25T07:59:15.733Z,97355.88
2023-02-25T08:09:21.374Z,97355.25
2023-02-25T08:19:25.229Z,97352.02
2023-02-25T08:29:29.082Z,97354.50
2023-02-25T08:39:36.070Z,97357.06
2023-02-25T08:49:43.747Z,97357.49
2023-02-25T08:59:47.430Z,97360.44
2023-02-25T09:09:51.042Z,97361.89
2023-02-25T09:19:54.663Z,97361.83
2023-02-25T09:29:59.835Z,97372.09
2023-02-25T09:40:06.552Z,97374.14
2023-02-25T09:50:46.747Z,97381.20
2023-02-25T10:01:07.036Z,97384.85
2023-02-25T10:11:36.448Z,97383.96
2023-02-25T10:21:46.023Z,97389.13
2023-02-25T10:31:50.510Z,97389.83
2023-02-25T10:41:54.565Z,97390.48
2023-02-25T10:52:06.500Z,97390.66
2023-02-25T11:02:33.409Z,97393.98
2023-02-25T11:12:50.933Z,97402.52
2023-02-25T11:22:57.781Z,97406.54
2023-02-25T11:33:06.447Z,97402.23
2023-02-25T11:53:38.318Z,97409.95
2023-02-25T12:04:04.328Z,97412.20
2023-02-25T12:14:30.964Z,97417.70
2023-02-25T12:24:51.334Z,97421.09
2023-02-25T12:35:28.115Z,97428.75
2023-02-25T12:45:41.675Z,97434.42
2023-02-25T12:56:08.209Z,97440.11
2023-02-25T13:06:33.646Z,97450.89
2023-02-25T13:16:43.503Z,97461.33
2023-02-25T13:26:52.313Z,97469.84
2023-02-25T13:37:01.880Z,97480.61
2023-02-25T13:47:21.350Z,97492.80
2023-02-25T13:57:29.726Z,97502.90
2023-02-25T14:08:12.277Z,97511.22
2023-02-25T14:18:45.049Z,97523.39
2023-02-25T14:29:10.193Z,97534.80
2023-02-25T14:39:28.280Z,97551.56
2023-02-25T14:49:45.217Z,97566.98
2023-02-25T15:00:07.084Z,97574.84
2023-02-25T15:10:40.919Z,97588.79
2023-02-25T15:20:47.724Z,97612.52
2023-02-25T15:31:00.905Z,97628.23
2023-02-25T15:41:24.893Z,97637.76
2023-02-25T15:51:47.537Z,97652.33
2023-02-25T16:01:51.408Z,97669.80
2023-02-25T16:12:04.245Z,97679.17
2023-02-25T16:22:22.019Z,97710.54
2023-02-25T16:32:32.790Z,97736.48
2023-02-25T16:42:36.479Z,97754.39
2023-02-25T16:52:50.857Z,97783.80
2023-02-25T17:03:07.283Z,97811.42
2023-02-25T17:13:19.334Z,97834.40
2023-02-25T17:23:24.709Z,97859.69
2023-02-25T17:33:29.405Z,97893.02
2023-02-25T17:43:39.733Z,97903.13
2023-02-25T17:53:56.136Z,97918.35
2023-02-25T18:04:06.340Z,97936.90
2023-02-25T18:14:36.031Z,97953.58
2023-02-25T18:24:53.307Z,97961.39
2023-02-25T18:34:59.559Z,97993.66
2023-02-25T18:45:22.308Z,98022.07
2023-02-25T18:55:33.217Z,98039.71
2023-02-25T19:05:37.781Z,98050.48
2023-02-25T19:15:43.317Z,98079.23
2023-02-25T19:25:55.289Z,98111.25
2023-02-25T19:36:02.233Z,98123.09
2023-02-25T19:46:12.388Z,98136.48
2023-02-25T19:56:19.062Z,98169.39
2023-02-25T20:06:23.740Z,98189.63
2023-02-25T20:16:28.013Z,98219.41
2023-02-25T20:26:33.760Z,98245.07
2023-02-25T20:37:11.179Z,98267.73
2023-02-25T20:47:22.159Z,98284.83
2023-02-25T20:57:27.248Z,98307.75
2023-02-25T21:07:34.102Z,98332.71
2023-02-25T21:17:37.947Z,98347.73
2023-02-25T21:27:42.015Z,98364.98
2023-02-25T21:37:47.924Z,98382.00
2023-02-25T21:47:54.208Z,98399.73
2023-02-25T21:58:00.044Z,98424.71
2023-02-25T22:08:05.129Z,98436.31
2023-02-25T22:18:08.702Z,98452.52
2023-02-25T22:28:13.931Z,98455.39
2023-02-25T22:38:17.764Z,98466.08
2023-02-25T22:48:21.420Z,98488.27
2023-02-25T22:58:25.004Z,98511.10
2023-02-25T23:18:51.247Z,98552.20
2023-02-25T23:29:00.247Z,98576.20
2023-02-25T23:39:05.737Z,98593.09
2023-02-25T23:49:13.956Z,98604.41
2023-02-25T23:59:18.485Z,98618.96
